sensor_id;sensor_type;location;lat;lon;timestamp;P1;durP1;ratioP1;P2;durP2;ratioP2
68757;SDS011;55747;51.998;4.466;2022-10-10T00:01:50;9.65;;;6.20;;
68757;SDS011;55747;51.998;4.466;2022-10-10T00:04:15;8.83;;;5.77;;
68757;SDS011;55747;51.998;4.466;2022-10-10T00:06:41;9.83;;;5.73;;
68757;SDS011;55747;51.998;4.466;2022-10-10T00:09:06;9.15;;;5.68;;
68757;SDS011;55747;51.998;4.466;2022-10-10T00:11:31;8.85;;;5.85;;
68757;SDS011;55747;51.998;4.466;2022-10-10T00:13:57;9.45;;;6.10;;
68757;SDS011;55747;51.998;4.466;2022-10-10T00:16:22;8.52;;;5.47;;
68757;SDS011;55747;51.998;4.466;2022-10-10T00:18:47;11.05;;;5.90;;
68757;SDS011;55747;51.998;4.466;2022-10-10T00:21:13;11.43;;;5.80;;
68757;SDS011;55747;51.998;4.466;2022-10-10T00:23:39;9.50;;;6.10;;
68757;SDS011;55747;51.998;4.466;2022-10-10T00:26:05;9.90;;;5.72;;
68757;SDS011;55747;51.998;4.466;2022-10-10T00:28:31;8.70;;;5.82;;
68757;SDS011;55747;51.998;4.466;2022-10-10T00:30:56;9.48;;;6.40;;
68757;SDS011;55747;51.998;4.466;2022-10-10T00:33:21;8.73;;;6.20;;
68757;SDS011;55747;51.998;4.466;2022-10-10T00:35:47;10.90;;;6.18;;
68757;SDS011;55747;51.998;4.466;2022-10-10T00:38:13;10.57;;;5.40;;
68757;SDS011;55747;51.998;4.466;2022-10-10T00:40:46;7.80;;;6.00;;
68757;SDS011;55747;51.998;4.466;2022-10-10T00:43:16;13.48;;;6.22;;
68757;SDS011;55747;51.998;4.466;2022-10-10T00:45:43;9.23;;;6.25;;
68757;SDS011;55747;51.998;4.466;2022-10-10T00:48:21;14.10;;;6.18;;
68757;SDS011;55747;51.998;4.466;2022-10-10T00:50:59;9.85;;;6.47;;
68757;SDS011;55747;51.998;4.466;2022-10-10T00:53:30;12.68;;;6.70;;
68757;SDS011;55747;51.998;4.466;2022-10-10T00:55:58;12.45;;;6.60;;
68757;SDS011;55747;51.998;4.466;2022-10-10T00:58:25;12.40;;;6.25;;
68757;SDS011;55747;51.998;4.466;2022-10-10T01:01:00;9.40;;;6.03;;
68757;SDS011;55747;51.998;4.466;2022-10-10T01:03:58;11.40;;;6.55;;
68757;SDS011;55747;51.998;4.466;2022-10-10T01:06:24;8.52;;;6.38;;
68757;SDS011;55747;51.998;4.466;2022-10-10T01:08:50;9.65;;;6.30;;
68757;SDS011;55747;51.998;4.466;2022-10-10T01:17:04;11.48;;;6.78;;
68757;SDS011;55747;51.998;4.466;2022-10-10T01:22:38;9.75;;;6.57;;
68757;SDS011;55747;51.998;4.466;2022-10-10T01:27:52;8.68;;;6.28;;
68757;SDS011;55747;51.998;4.466;2022-10-10T01:30:23;11.70;;;6.32;;
68757;SDS011;55747;51.998;4.466;2022-10-10T01:32:51;10.23;;;6.45;;
68757;SDS011;55747;51.998;4.466;2022-10-10T01:35:42;11.25;;;6.60;;
68757;SDS011;55747;51.998;4.466;2022-10-10T01:38:34;11.02;;;6.50;;
68757;SDS011;55747;51.998;4.466;2022-10-10T01:41:11;9.35;;;6.40;;
68757;SDS011;55747;51.998;4.466;2022-10-10T01:43:40;10.50;;;6.80;;
68757;SDS011;55747;51.998;4.466;2022-10-10T01:46:08;9.32;;;6.40;;
68757;SDS011;55747;51.998;4.466;2022-10-10T01:48:40;12.13;;;6.68;;
68757;SDS011;55747;51.998;4.466;2022-10-10T01:51:14;12.75;;;6.60;;
68757;SDS011;55747;51.998;4.466;2022-10-10T01:56:57;12.43;;;6.65;;
68757;SDS011;55747;51.998;4.466;2022-10-10T01:59:42;14.13;;;6.30;;
68757;SDS011;55747;51.998;4.466;2022-10-10T02:05:03;10.32;;;6.32;;
68757;SDS011;55747;51.998;4.466;2022-10-10T02:07:43;14.15;;;6.70;;
68757;SDS011;55747;51.998;4.466;2022-10-10T02:10:27;10.48;;;6.20;;
68757;SDS011;55747;51.998;4.466;2022-10-10T02:13:03;9.63;;;6.10;;
68757;SDS011;55747;51.998;4.466;2022-10-10T02:15:32;12.30;;;6.35;;
68757;SDS011;55747;51.998;4.466;2022-10-10T02:18:03;10.23;;;6.60;;
68757;SDS011;55747;51.998;4.466;2022-10-10T02:20:30;9.82;;;6.03;;
68757;SDS011;55747;51.998;4.466;2022-10-10T02:22:56;13.50;;;6.45;;
68757;SDS011;55747;51.998;4.466;2022-10-10T02:25:23;12.88;;;6.30;;
68757;SDS011;55747;51.998;4.466;2022-10-10T02:30:36;17.08;;;7.00;;
68757;SDS011;55747;51.998;4.466;2022-10-10T02:33:05;12.85;;;6.80;;
68757;SDS011;55747;51.998;4.466;2022-10-10T02:35:37;11.25;;;7.00;;
68757;SDS011;55747;51.998;4.466;2022-10-10T02:38:05;12.65;;;6.43;;
68757;SDS011;55747;51.998;4.466;2022-10-10T02:40:33;10.65;;;7.00;;
68757;SDS011;55747;51.998;4.466;2022-10-10T02:43:00;13.90;;;6.53;;
68757;SDS011;55747;51.998;4.466;2022-10-10T02:45:29;13.57;;;6.75;;
68757;SDS011;55747;51.998;4.466;2022-10-10T02:47:57;12.75;;;6.68;;
68757;SDS011;55747;51.998;4.466;2022-10-10T02:50:23;12.13;;;6.47;;
68757;SDS011;55747;51.998;4.466;2022-10-10T02:52:49;13.88;;;6.63;;
68757;SDS011;55747;51.998;4.466;2022-10-10T02:55:14;10.50;;;7.30;;
68757;SDS011;55747;51.998;4.466;2022-10-10T02:57:40;11.98;;;6.43;;
68757;SDS011;55747;51.998;4.466;2022-10-10T03:00:05;12.77;;;6.88;;
68757;SDS011;55747;51.998;4.466;2022-10-10T03:02:31;10.98;;;7.30;;
68757;SDS011;55747;51.998;4.466;2022-10-10T03:04:57;14.02;;;6.75;;
68757;SDS011;55747;51.998;4.466;2022-10-10T03:07:23;13.10;;;7.03;;
68757;SDS011;55747;51.998;4.466;2022-10-10T03:09:49;12.07;;;6.90;;
68757;SDS011;55747;51.998;4.466;2022-10-10T03:12:14;14.45;;;7.22;;
68757;SDS011;55747;51.998;4.466;2022-10-10T03:14:40;11.48;;;6.95;;
68757;SDS011;55747;51.998;4.466;2022-10-10T03:17:05;12.70;;;7.27;;
68757;SDS011;55747;51.998;4.466;2022-10-10T03:19:30;10.65;;;7.40;;
68757;SDS011;55747;51.998;4.466;2022-10-10T03:21:56;12.77;;;7.45;;
68757;SDS011;55747;51.998;4.466;2022-10-10T03:24:21;11.52;;;7.50;;
68757;SDS011;55747;51.998;4.466;2022-10-10T03:26:46;10.95;;;7.65;;
68757;SDS011;55747;51.998;4.466;2022-10-10T03:29:12;11.70;;;7.47;;
68757;SDS011;55747;51.998;4.466;2022-10-10T03:31:37;11.13;;;7.47;;
68757;SDS011;55747;51.998;4.466;2022-10-10T03:34:02;12.50;;;7.82;;
68757;SDS011;55747;51.998;4.466;2022-10-10T03:36:28;11.40;;;7.60;;
68757;SDS011;55747;51.998;4.466;2022-10-10T03:38:55;14.60;;;7.90;;
68757;SDS011;55747;51.998;4.466;2022-10-10T03:41:37;13.80;;;8.13;;
68757;SDS011;55747;51.998;4.466;2022-10-10T03:44:02;11.80;;;8.02;;
68757;SDS011;55747;51.998;4.466;2022-10-10T03:46:28;13.50;;;7.45;;
68757;SDS011;55747;51.998;4.466;2022-10-10T03:48:53;14.40;;;7.90;;
68757;SDS011;55747;51.998;4.466;2022-10-10T03:51:18;13.68;;;8.27;;
68757;SDS011;55747;51.998;4.466;2022-10-10T03:53:44;16.90;;;8.23;;
68757;SDS011;55747;51.998;4.466;2022-10-10T03:56:09;14.55;;;8.18;;
68757;SDS011;55747;51.998;4.466;2022-10-10T03:58:35;12.45;;;7.97;;
68757;SDS011;55747;51.998;4.466;2022-10-10T04:01:00;16.80;;;8.30;;
68757;SDS011;55747;51.998;4.466;2022-10-10T04:03:27;16.33;;;8.43;;
68757;SDS011;55747;51.998;4.466;2022-10-10T04:05:53;14.55;;;8.85;;
68757;SDS011;55747;51.998;4.466;2022-10-10T04:08:18;16.15;;;8.45;;
68757;SDS011;55747;51.998;4.466;2022-10-10T04:10:48;12.27;;;8.25;;
68757;SDS011;55747;51.998;4.466;2022-10-10T04:13:18;14.93;;;8.85;;
68757;SDS011;55747;51.998;4.466;2022-10-10T04:15:50;14.48;;;8.88;;
68757;SDS011;55747;51.998;4.466;2022-10-10T04:18:16;14.25;;;8.75;;
68757;SDS011;55747;51.998;4.466;2022-10-10T04:20:42;13.00;;;8.95;;
68757;SDS011;55747;51.998;4.466;2022-10-10T04:23:07;15.57;;;8.52;;
68757;SDS011;55747;51.998;4.466;2022-10-10T04:25:32;14.60;;;8.37;;
68757;SDS011;55747;51.998;4.466;2022-10-10T04:27:58;15.68;;;8.73;;
68757;SDS011;55747;51.998;4.466;2022-10-10T04:30:23;15.95;;;8.98;;
68757;SDS011;55747;51.998;4.466;2022-10-10T04:32:49;16.85;;;9.30;;
68757;SDS011;55747;51.998;4.466;2022-10-10T04:35:14;14.55;;;8.85;;
68757;SDS011;55747;51.998;4.466;2022-10-10T04:37:39;16.95;;;9.82;;
68757;SDS011;55747;51.998;4.466;2022-10-10T04:40:05;15.65;;;9.25;;
68757;SDS011;55747;51.998;4.466;2022-10-10T04:42:33;16.40;;;9.35;;
68757;SDS011;55747;51.998;4.466;2022-10-10T04:44:58;15.35;;;8.88;;
68757;SDS011;55747;51.998;4.466;2022-10-10T04:47:24;16.38;;;9.43;;
68757;SDS011;55747;51.998;4.466;2022-10-10T04:49:49;19.02;;;9.30;;
68757;SDS011;55747;51.998;4.466;2022-10-10T04:52:14;14.50;;;9.33;;
68757;SDS011;55747;51.998;4.466;2022-10-10T04:54:40;19.10;;;9.35;;
68757;SDS011;55747;51.998;4.466;2022-10-10T04:57:05;15.65;;;10.13;;
68757;SDS011;55747;51.998;4.466;2022-10-10T04:59:30;15.25;;;10.15;;
68757;SDS011;55747;51.998;4.466;2022-10-10T05:01:56;15.18;;;9.18;;
68757;SDS011;55747;51.998;4.466;2022-10-10T05:04:21;18.35;;;10.30;;
68757;SDS011;55747;51.998;4.466;2022-10-10T05:06:47;17.40;;;9.83;;
68757;SDS011;55747;51.998;4.466;2022-10-10T05:09:12;16.20;;;10.03;;
68757;SDS011;55747;51.998;4.466;2022-10-10T05:11:37;20.50;;;9.80;;
68757;SDS011;55747;51.998;4.466;2022-10-10T05:14:03;19.48;;;10.55;;
68757;SDS011;55747;51.998;4.466;2022-10-10T05:16:28;20.05;;;10.85;;
68757;SDS011;55747;51.998;4.466;2022-10-10T05:18:57;15.45;;;10.00;;
68757;SDS011;55747;51.998;4.466;2022-10-10T05:21:22;22.60;;;10.63;;
68757;SDS011;55747;51.998;4.466;2022-10-10T05:23:48;19.80;;;10.88;;
68757;SDS011;55747;51.998;4.466;2022-10-10T05:26:14;23.65;;;12.30;;
68757;SDS011;55747;51.998;4.466;2022-10-10T05:28:46;17.60;;;11.60;;
68757;SDS011;55747;51.998;4.466;2022-10-10T05:31:12;19.95;;;11.95;;
68757;SDS011;55747;51.998;4.466;2022-10-10T05:33:43;19.75;;;11.68;;
68757;SDS011;55747;51.998;4.466;2022-10-10T05:36:10;20.83;;;12.23;;
68757;SDS011;55747;51.998;4.466;2022-10-10T05:38:37;23.55;;;12.75;;
68757;SDS011;55747;51.998;4.466;2022-10-10T05:41:03;28.67;;;13.63;;
68757;SDS011;55747;51.998;4.466;2022-10-10T05:43:29;22.20;;;12.32;;
68757;SDS011;55747;51.998;4.466;2022-10-10T05:45:55;22.73;;;13.10;;
68757;SDS011;55747;51.998;4.466;2022-10-10T05:48:20;25.75;;;13.48;;
68757;SDS011;55747;51.998;4.466;2022-10-10T05:50:47;23.30;;;13.50;;
68757;SDS011;55747;51.998;4.466;2022-10-10T05:53:18;25.42;;;13.88;;
68757;SDS011;55747;51.998;4.466;2022-10-10T05:55:45;26.67;;;16.00;;
68757;SDS011;55747;51.998;4.466;2022-10-10T05:58:11;32.83;;;19.85;;
68757;SDS011;55747;51.998;4.466;2022-10-10T06:00:37;38.88;;;23.27;;
68757;SDS011;55747;51.998;4.466;2022-10-10T06:03:06;55.75;;;34.50;;
68757;SDS011;55747;51.998;4.466;2022-10-10T06:05:35;79.82;;;49.25;;
68757;SDS011;55747;51.998;4.466;2022-10-10T06:08:01;104.75;;;66.43;;
68757;SDS011;55747;51.998;4.466;2022-10-10T06:10:26;104.72;;;68.95;;
68757;SDS011;55747;51.998;4.466;2022-10-10T06:12:51;117.55;;;74.55;;
68757;SDS011;55747;51.998;4.466;2022-10-10T06:15:17;122.47;;;78.05;;
68757;SDS011;55747;51.998;4.466;2022-10-10T06:17:42;116.90;;;74.83;;
68757;SDS011;55747;51.998;4.466;2022-10-10T06:20:10;98.10;;;62.97;;
68757;SDS011;55747;51.998;4.466;2022-10-10T06:22:41;80.35;;;52.00;;
68757;SDS011;55747;51.998;4.466;2022-10-10T06:25:07;66.40;;;41.58;;
68757;SDS011;55747;51.998;4.466;2022-10-10T06:27:32;49.88;;;29.88;;
68757;SDS011;55747;51.998;4.466;2022-10-10T06:29:58;40.83;;;24.37;;
68757;SDS011;55747;51.998;4.466;2022-10-10T06:32:23;28.00;;;18.38;;
68757;SDS011;55747;51.998;4.466;2022-10-10T06:35:15;21.58;;;14.98;;
68757;SDS011;55747;51.998;4.466;2022-10-10T06:37:43;25.08;;;14.15;;
68757;SDS011;55747;51.998;4.466;2022-10-10T06:40:14;25.88;;;13.00;;
68757;SDS011;55747;51.998;4.466;2022-10-10T06:42:46;20.95;;;12.38;;
68757;SDS011;55747;51.998;4.466;2022-10-10T06:45:11;18.27;;;11.00;;
68757;SDS011;55747;51.998;4.466;2022-10-10T06:47:48;24.10;;;11.65;;
68757;SDS011;55747;51.998;4.466;2022-10-10T06:50:13;20.67;;;11.10;;
68757;SDS011;55747;51.998;4.466;2022-10-10T06:52:46;17.33;;;10.80;;
68757;SDS011;55747;51.998;4.466;2022-10-10T06:55:11;17.65;;;10.38;;
68757;SDS011;55747;51.998;4.466;2022-10-10T06:57:37;15.65;;;10.52;;
68757;SDS011;55747;51.998;4.466;2022-10-10T07:00:02;17.05;;;10.32;;
68757;SDS011;55747;51.998;4.466;2022-10-10T07:02:29;16.08;;;9.98;;
68757;SDS011;55747;51.998;4.466;2022-10-10T07:04:55;14.88;;;9.85;;
68757;SDS011;55747;51.998;4.466;2022-10-10T07:07:20;16.33;;;9.87;;
68757;SDS011;55747;51.998;4.466;2022-10-10T07:09:45;18.10;;;9.60;;
68757;SDS011;55747;51.998;4.466;2022-10-10T07:12:11;15.40;;;9.93;;
68757;SDS011;55747;51.998;4.466;2022-10-10T07:14:36;13.85;;;9.43;;
68757;SDS011;55747;51.998;4.466;2022-10-10T07:17:01;16.70;;;10.00;;
68757;SDS011;55747;51.998;4.466;2022-10-10T07:19:27;20.55;;;10.07;;
68757;SDS011;55747;51.998;4.466;2022-10-10T07:21:52;15.65;;;9.93;;
68757;SDS011;55747;51.998;4.466;2022-10-10T07:24:18;18.88;;;10.00;;
68757;SDS011;55747;51.998;4.466;2022-10-10T07:26:43;19.58;;;9.88;;
68757;SDS011;55747;51.998;4.466;2022-10-10T07:29:09;14.95;;;9.15;;
68757;SDS011;55747;51.998;4.466;2022-10-10T07:31:34;14.68;;;8.55;;
68757;SDS011;55747;51.998;4.466;2022-10-10T07:33:59;13.75;;;9.02;;
68757;SDS011;55747;51.998;4.466;2022-10-10T07:36:24;16.92;;;8.85;;
68757;SDS011;55747;51.998;4.466;2022-10-10T07:38:53;14.82;;;9.30;;
68757;SDS011;55747;51.998;4.466;2022-10-10T07:41:19;18.58;;;8.95;;
68757;SDS011;55747;51.998;4.466;2022-10-10T07:43:47;13.95;;;8.40;;
68757;SDS011;55747;51.998;4.466;2022-10-10T07:46:13;13.45;;;7.88;;
68757;SDS011;55747;51.998;4.466;2022-10-10T07:48:43;15.60;;;8.27;;
68757;SDS011;55747;51.998;4.466;2022-10-10T07:51:09;15.60;;;8.30;;
68757;SDS011;55747;51.998;4.466;2022-10-10T07:53:37;17.90;;;8.93;;
68757;SDS011;55747;51.998;4.466;2022-10-10T07:56:05;10.40;;;7.72;;
68757;SDS011;55747;51.998;4.466;2022-10-10T07:58:35;14.25;;;8.25;;
68757;SDS011;55747;51.998;4.466;2022-10-10T08:01:05;14.25;;;7.95;;
68757;SDS011;55747;51.998;4.466;2022-10-10T08:05:57;14.48;;;8.02;;
68757;SDS011;55747;51.998;4.466;2022-10-10T08:08:26;13.50;;;8.07;;
68757;SDS011;55747;51.998;4.466;2022-10-10T08:10:51;14.75;;;7.78;;
68757;SDS011;55747;51.998;4.466;2022-10-10T08:13:16;16.38;;;8.10;;
68757;SDS011;55747;51.998;4.466;2022-10-10T08:15:42;16.60;;;8.25;;
68757;SDS011;55747;51.998;4.466;2022-10-10T08:18:07;15.07;;;8.40;;
68757;SDS011;55747;51.998;4.466;2022-10-10T08:20:32;16.70;;;8.20;;
68757;SDS011;55747;51.998;4.466;2022-10-10T08:22:58;11.38;;;7.45;;
68757;SDS011;55747;51.998;4.466;2022-10-10T08:25:23;15.07;;;8.32;;
68757;SDS011;55747;51.998;4.466;2022-10-10T08:27:49;16.13;;;8.57;;
68757;SDS011;55747;51.998;4.466;2022-10-10T08:30:14;13.20;;;8.15;;
68757;SDS011;55747;51.998;4.466;2022-10-10T08:32:39;15.55;;;8.50;;
68757;SDS011;55747;51.998;4.466;2022-10-10T08:35:05;14.30;;;8.60;;
68757;SDS011;55747;51.998;4.466;2022-10-10T08:37:30;14.88;;;8.07;;
68757;SDS011;55747;51.998;4.466;2022-10-10T08:39:56;16.97;;;8.43;;
68757;SDS011;55747;51.998;4.466;2022-10-10T08:42:25;16.08;;;7.72;;
68757;SDS011;55747;51.998;4.466;2022-10-10T08:44:56;20.92;;;8.45;;
68757;SDS011;55747;51.998;4.466;2022-10-10T08:47:35;17.97;;;8.33;;
68757;SDS011;55747;51.998;4.466;2022-10-10T08:50:06;20.27;;;7.85;;
68757;SDS011;55747;51.998;4.466;2022-10-10T08:52:42;18.45;;;8.05;;
68757;SDS011;55747;51.998;4.466;2022-10-10T08:55:17;20.60;;;8.10;;
68757;SDS011;55747;51.998;4.466;2022-10-10T08:57:47;14.55;;;7.82;;
68757;SDS011;55747;51.998;4.466;2022-10-10T09:00:17;13.55;;;7.57;;
68757;SDS011;55747;51.998;4.466;2022-10-10T09:02:58;11.75;;;7.45;;
68757;SDS011;55747;51.998;4.466;2022-10-10T09:14:10;16.17;;;7.20;;
68757;SDS011;55747;51.998;4.466;2022-10-10T09:17:03;12.65;;;6.85;;
68757;SDS011;55747;51.998;4.466;2022-10-10T09:22:51;15.63;;;6.13;;
68757;SDS011;55747;51.998;4.466;2022-10-10T09:25:34;8.60;;;6.22;;
68757;SDS011;55747;51.998;4.466;2022-10-10T09:28:04;10.90;;;5.97;;
68757;SDS011;55747;51.998;4.466;2022-10-10T09:30:36;13.18;;;6.32;;
68757;SDS011;55747;51.998;4.466;2022-10-10T09:33:09;15.85;;;5.88;;
68757;SDS011;55747;51.998;4.466;2022-10-10T09:35:44;15.80;;;6.57;;
68757;SDS011;55747;51.998;4.466;2022-10-10T09:38:16;18.30;;;6.50;;
68757;SDS011;55747;51.998;4.466;2022-10-10T09:40:55;13.25;;;6.55;;
68757;SDS011;55747;51.998;4.466;2022-10-10T09:43:28;13.38;;;6.18;;
68757;SDS011;55747;51.998;4.466;2022-10-10T09:45:55;11.73;;;6.38;;
68757;SDS011;55747;51.998;4.466;2022-10-10T09:48:26;14.20;;;6.88;;
68757;SDS011;55747;51.998;4.466;2022-10-10T09:51:04;11.75;;;6.57;;
68757;SDS011;55747;51.998;4.466;2022-10-10T09:53:31;17.23;;;6.90;;
68757;SDS011;55747;51.998;4.466;2022-10-10T09:55:57;13.18;;;6.72;;
68757;SDS011;55747;51.998;4.466;2022-10-10T09:58:28;12.77;;;7.60;;
68757;SDS011;55747;51.998;4.466;2022-10-10T10:06:31;12.73;;;6.13;;
68757;SDS011;55747;51.998;4.466;2022-10-10T10:08:59;14.00;;;6.85;;
68757;SDS011;55747;51.998;4.466;2022-10-10T10:11:28;14.05;;;6.70;;
68757;SDS011;55747;51.998;4.466;2022-10-10T10:13:56;12.77;;;6.97;;
68757;SDS011;55747;51.998;4.466;2022-10-10T10:16:30;13.90;;;6.80;;
68757;SDS011;55747;51.998;4.466;2022-10-10T10:18:57;17.75;;;6.80;;
68757;SDS011;55747;51.998;4.466;2022-10-10T10:21:23;13.43;;;7.35;;
68757;SDS011;55747;51.998;4.466;2022-10-10T10:26:19;13.60;;;6.50;;
68757;SDS011;55747;51.998;4.466;2022-10-10T10:28:45;11.98;;;6.85;;
68757;SDS011;55747;51.998;4.466;2022-10-10T10:34:03;12.95;;;6.45;;
68757;SDS011;55747;51.998;4.466;2022-10-10T10:36:42;14.32;;;7.10;;
68757;SDS011;55747;51.998;4.466;2022-10-10T10:55:41;13.77;;;6.57;;
68757;SDS011;55747;51.998;4.466;2022-10-10T11:01:34;11.93;;;6.93;;
68757;SDS011;55747;51.998;4.466;2022-10-10T11:04:04;13.45;;;6.32;;
68757;SDS011;55747;51.998;4.466;2022-10-10T11:06:46;12.43;;;6.10;;
68757;SDS011;55747;51.998;4.466;2022-10-10T11:09:34;12.60;;;6.38;;
68757;SDS011;55747;51.998;4.466;2022-10-10T11:12:05;13.57;;;6.10;;
68757;SDS011;55747;51.998;4.466;2022-10-10T11:15:02;16.90;;;6.57;;
68757;SDS011;55747;51.998;4.466;2022-10-10T11:20:28;13.68;;;6.00;;
68757;SDS011;55747;51.998;4.466;2022-10-10T11:28:26;16.52;;;5.55;;
68757;SDS011;55747;51.998;4.466;2022-10-10T11:30:54;12.45;;;4.85;;
68757;SDS011;55747;51.998;4.466;2022-10-10T11:33:39;11.43;;;4.40;;
68757;SDS011;55747;51.998;4.466;2022-10-10T11:36:11;11.57;;;4.03;;
68757;SDS011;55747;51.998;4.466;2022-10-10T11:38:50;13.00;;;3.88;;
68757;SDS011;55747;51.998;4.466;2022-10-10T11:41:25;10.02;;;2.83;;
68757;SDS011;55747;51.998;4.466;2022-10-10T11:47:22;6.05;;;2.33;;
68757;SDS011;55747;51.998;4.466;2022-10-10T11:49:53;7.88;;;2.50;;
68757;SDS011;55747;51.998;4.466;2022-10-10T11:52:30;7.22;;;2.65;;
68757;SDS011;55747;51.998;4.466;2022-10-10T12:00:33;7.15;;;2.67;;
68757;SDS011;55747;51.998;4.466;2022-10-10T12:03:05;6.13;;;1.90;;
68757;SDS011;55747;51.998;4.466;2022-10-10T12:05:34;5.57;;;2.03;;
68757;SDS011;55747;51.998;4.466;2022-10-10T12:08:06;3.33;;;1.98;;
68757;SDS011;55747;51.998;4.466;2022-10-10T12:10:41;6.60;;;2.00;;
68757;SDS011;55747;51.998;4.466;2022-10-10T12:15:47;4.15;;;1.60;;
68757;SDS011;55747;51.998;4.466;2022-10-10T12:18:37;4.15;;;1.33;;
68757;SDS011;55747;51.998;4.466;2022-10-10T12:23:37;4.13;;;1.05;;
68757;SDS011;55747;51.998;4.466;2022-10-10T12:26:07;3.55;;;1.02;;
68757;SDS011;55747;51.998;4.466;2022-10-10T12:31:43;2.28;;;0.70;;
68757;SDS011;55747;51.998;4.466;2022-10-10T12:44:22;1.63;;;0.70;;
68757;SDS011;55747;51.998;4.466;2022-10-10T12:55:45;4.68;;;0.85;;
68757;SDS011;55747;51.998;4.466;2022-10-10T12:58:18;3.88;;;0.90;;
68757;SDS011;55747;51.998;4.466;2022-10-10T13:00:46;4.15;;;0.88;;
68757;SDS011;55747;51.998;4.466;2022-10-10T13:03:15;5.60;;;0.90;;
68757;SDS011;55747;51.998;4.466;2022-10-10T13:05:45;6.22;;;0.95;;
68757;SDS011;55747;51.998;4.466;2022-10-10T13:08:14;6.03;;;0.90;;
68757;SDS011;55747;51.998;4.466;2022-10-10T13:10:42;6.57;;;1.20;;
68757;SDS011;55747;51.998;4.466;2022-10-10T13:13:25;7.78;;;0.90;;
68757;SDS011;55747;51.998;4.466;2022-10-10T13:15:51;3.17;;;0.88;;
68757;SDS011;55747;51.998;4.466;2022-10-10T13:18:40;7.45;;;1.20;;
68757;SDS011;55747;51.998;4.466;2022-10-10T13:21:12;5.97;;;1.10;;
68757;SDS011;55747;51.998;4.466;2022-10-10T13:23:40;6.07;;;1.02;;
68757;SDS011;55747;51.998;4.466;2022-10-10T13:29:24;12.98;;;1.67;;
68757;SDS011;55747;51.998;4.466;2022-10-10T13:31:56;16.70;;;1.83;;
68757;SDS011;55747;51.998;4.466;2022-10-10T13:34:25;12.73;;;2.00;;
68757;SDS011;55747;51.998;4.466;2022-10-10T13:36:54;15.65;;;2.10;;
68757;SDS011;55747;51.998;4.466;2022-10-10T13:39:21;16.38;;;1.92;;
68757;SDS011;55747;51.998;4.466;2022-10-10T13:41:47;13.48;;;1.95;;
68757;SDS011;55747;51.998;4.466;2022-10-10T13:44:15;10.98;;;1.73;;
68757;SDS011;55747;51.998;4.466;2022-10-10T13:46:46;18.45;;;2.60;;
68757;SDS011;55747;51.998;4.466;2022-10-10T13:49:12;14.85;;;2.13;;
68757;SDS011;55747;51.998;4.466;2022-10-10T13:51:46;12.27;;;2.13;;
68757;SDS011;55747;51.998;4.466;2022-10-10T13:59:44;20.13;;;2.17;;
68757;SDS011;55747;51.998;4.466;2022-10-10T14:02:14;15.10;;;2.65;;
68757;SDS011;55747;51.998;4.466;2022-10-10T14:04:43;13.80;;;2.10;;
68757;SDS011;55747;51.998;4.466;2022-10-10T14:07:24;16.15;;;2.33;;
68757;SDS011;55747;51.998;4.466;2022-10-10T14:09:52;11.55;;;2.28;;
68757;SDS011;55747;51.998;4.466;2022-10-10T14:12:28;17.13;;;2.30;;
68757;SDS011;55747;51.998;4.466;2022-10-10T14:14:57;14.35;;;2.15;;
68757;SDS011;55747;51.998;4.466;2022-10-10T14:17:26;15.13;;;2.58;;
68757;SDS011;55747;51.998;4.466;2022-10-10T14:19:56;8.45;;;1.77;;
68757;SDS011;55747;51.998;4.466;2022-10-10T14:22:24;11.07;;;1.80;;
68757;SDS011;55747;51.998;4.466;2022-10-10T14:24:50;9.90;;;2.00;;
68757;SDS011;55747;51.998;4.466;2022-10-10T14:29:44;8.75;;;2.00;;
68757;SDS011;55747;51.998;4.466;2022-10-10T14:32:11;12.75;;;2.00;;
68757;SDS011;55747;51.998;4.466;2022-10-10T14:34:38;10.63;;;1.75;;
68757;SDS011;55747;51.998;4.466;2022-10-10T14:37:03;9.32;;;1.65;;
68757;SDS011;55747;51.998;4.466;2022-10-10T14:39:40;7.55;;;1.50;;
68757;SDS011;55747;51.998;4.466;2022-10-10T14:42:07;9.25;;;1.73;;
68757;SDS011;55747;51.998;4.466;2022-10-10T14:44:38;9.77;;;1.63;;
68757;SDS011;55747;51.998;4.466;2022-10-10T14:47:04;12.32;;;1.63;;
68757;SDS011;55747;51.998;4.466;2022-10-10T14:49:45;7.93;;;1.63;;
68757;SDS011;55747;51.998;4.466;2022-10-10T14:52:11;8.35;;;1.50;;
68757;SDS011;55747;51.998;4.466;2022-10-10T14:54:37;7.78;;;1.90;;
68757;SDS011;55747;51.998;4.466;2022-10-10T14:57:03;11.48;;;1.80;;
68757;SDS011;55747;51.998;4.466;2022-10-10T14:59:28;6.53;;;1.27;;
68757;SDS011;55747;51.998;4.466;2022-10-10T15:01:54;10.75;;;1.90;;
68757;SDS011;55747;51.998;4.466;2022-10-10T15:04:21;9.80;;;1.40;;
68757;SDS011;55747;51.998;4.466;2022-10-10T15:06:47;10.93;;;1.60;;
68757;SDS011;55747;51.998;4.466;2022-10-10T15:09:12;10.60;;;1.70;;
68757;SDS011;55747;51.998;4.466;2022-10-10T15:11:40;11.13;;;1.73;;
68757;SDS011;55747;51.998;4.466;2022-10-10T15:14:06;14.25;;;1.90;;
68757;SDS011;55747;51.998;4.466;2022-10-10T15:16:31;10.63;;;2.10;;
68757;SDS011;55747;51.998;4.466;2022-10-10T15:18:57;14.55;;;2.03;;
68757;SDS011;55747;51.998;4.466;2022-10-10T15:21:22;9.47;;;1.50;;
68757;SDS011;55747;51.998;4.466;2022-10-10T15:23:47;10.60;;;1.60;;
68757;SDS011;55747;51.998;4.466;2022-10-10T15:26:16;10.98;;;2.00;;
68757;SDS011;55747;51.998;4.466;2022-10-10T15:28:41;8.85;;;1.52;;
68757;SDS011;55747;51.998;4.466;2022-10-10T15:31:06;13.55;;;1.83;;
68757;SDS011;55747;51.998;4.466;2022-10-10T15:33:32;11.07;;;1.90;;
68757;SDS011;55747;51.998;4.466;2022-10-10T15:36:01;7.88;;;1.40;;
68757;SDS011;55747;51.998;4.466;2022-10-10T15:38:28;14.93;;;2.00;;
68757;SDS011;55747;51.998;4.466;2022-10-10T15:40:55;7.55;;;1.50;;
68757;SDS011;55747;51.998;4.466;2022-10-10T15:43:24;7.60;;;1.58;;
68757;SDS011;55747;51.998;4.466;2022-10-10T15:45:51;10.05;;;1.70;;
68757;SDS011;55747;51.998;4.466;2022-10-10T15:48:17;8.52;;;1.70;;
68757;SDS011;55747;51.998;4.466;2022-10-10T15:50:43;11.88;;;1.70;;
68757;SDS011;55747;51.998;4.466;2022-10-10T15:53:08;14.57;;;1.90;;
68757;SDS011;55747;51.998;4.466;2022-10-10T15:55:39;9.15;;;1.40;;
68757;SDS011;55747;51.998;4.466;2022-10-10T15:58:14;10.23;;;1.63;;
68757;SDS011;55747;51.998;4.466;2022-10-10T16:00:40;9.15;;;1.50;;
68757;SDS011;55747;51.998;4.466;2022-10-10T16:03:25;7.32;;;1.35;;
68757;SDS011;55747;51.998;4.466;2022-10-10T16:06:02;11.90;;;1.42;;
68757;SDS011;55747;51.998;4.466;2022-10-10T16:08:42;8.88;;;1.50;;
68757;SDS011;55747;51.998;4.466;2022-10-10T16:11:14;11.02;;;1.80;;
68757;SDS011;55747;51.998;4.466;2022-10-10T16:13:41;8.77;;;1.85;;
68757;SDS011;55747;51.998;4.466;2022-10-10T16:16:32;12.52;;;1.67;;
68757;SDS011;55747;51.998;4.466;2022-10-10T16:19:05;10.10;;;1.60;;
68757;SDS011;55747;51.998;4.466;2022-10-10T16:21:36;8.75;;;1.70;;
68757;SDS011;55747;51.998;4.466;2022-10-10T16:24:10;10.10;;;1.75;;
68757;SDS011;55747;51.998;4.466;2022-10-10T16:26:36;8.60;;;1.40;;
68757;SDS011;55747;51.998;4.466;2022-10-10T16:29:04;11.88;;;1.85;;
68757;SDS011;55747;51.998;4.466;2022-10-10T16:31:31;10.85;;;1.77;;
68757;SDS011;55747;51.998;4.466;2022-10-10T16:33:59;11.70;;;1.92;;
68757;SDS011;55747;51.998;4.466;2022-10-10T16:36:32;10.95;;;1.55;;
68757;SDS011;55747;51.998;4.466;2022-10-10T16:39:02;8.18;;;1.50;;
68757;SDS011;55747;51.998;4.466;2022-10-10T16:41:29;10.77;;;1.75;;
68757;SDS011;55747;51.998;4.466;2022-10-10T16:43:58;11.27;;;1.75;;
68757;SDS011;55747;51.998;4.466;2022-10-10T16:46:26;9.55;;;1.80;;
68757;SDS011;55747;51.998;4.466;2022-10-10T16:48:52;15.30;;;1.73;;